sensor_id;sensor_type;location;lat;lon;timestamp;pressure;altitude;pressure_sealevel;temperature;humidity
62710;BME280;48770;51.624;5.886;2022-09-16T00:00:23;100952.00;;;19.95;47.53
62710;BME280;48770;51.624;5.886;2022-09-16T00:02:52;100950.38;;;19.94;47.62
62710;BME280;48770;51.624;5.886;2022-09-16T00:05:18;100959.03;;;19.93;47.62
62710;BME280;48770;51.624;5.886;2022-09-16T00:07:43;100953.50;;;19.93;47.58
62710;BME280;48770;51.624;5.886;2022-09-16T00:10:09;100949.91;;;19.92;47.48
62710;BME280;48770;51.624;5.886;2022-09-16T00:12:34;100952.22;;;19.90;47.62
62710;BME280;48770;51.624;5.886;2022-09-16T00:15:00;100957.75;;;19.90;47.70
62710;BME280;48770;51.624;5.886;2022-09-16T00:17:25;100947.81;;;19.89;47.46
62710;BME280;48770;51.624;5.886;2022-09-16T00:19:51;100959.72;;;19.90;47.52
62710;BME280;48770;51.624;5.886;2022-09-16T00:22:17;100954.53;;;19.88;47.75
62710;BME280;48770;51.624;5.886;2022-09-16T00:24:42;100962.03;;;19.88;47.75
62710;BME280;48770;51.624;5.886;2022-09-16T00:27:07;100957.66;;;19.87;47.52
62710;BME280;48770;51.624;5.886;2022-09-16T00:29:33;100959.59;;;19.86;47.81
62710;BME280;48770;51.624;5.886;2022-09-16T00:31:58;100955.22;;;19.85;47.66
62710;BME280;48770;51.624;5.886;2022-09-16T00:34:24;100949.66;;;19.85;47.87
62710;BME280;48770;51.624;5.886;2022-09-16T00:36:49;100950.00;;;19.84;47.69
62710;BME280;48770;51.624;5.886;2022-09-16T00:39:15;100941.69;;;19.84;48.04
62710;BME280;48770;51.624;5.886;2022-09-16T00:41:40;100948.38;;;19.83;47.81
62710;BME280;48770;51.624;5.886;2022-09-16T00:47:10;100941.91;;;19.79;47.66
62710;BME280;48770;51.624;5.886;2022-09-16T00:49:35;100932.44;;;19.80;47.90
62710;BME280;48770;51.624;5.886;2022-09-16T00:52:02;100939.94;;;19.79;47.57
62710;BME280;48770;51.624;5.886;2022-09-16T00:54:30;100951.84;;;19.80;47.52
62710;BME280;48770;51.624;5.886;2022-09-16T00:56:57;100948.25;;;19.79;47.60
62710;BME280;48770;51.624;5.886;2022-09-16T00:59:27;100946.31;;;19.80;48.20
62710;BME280;48770;51.624;5.886;2022-09-16T01:01:55;100955.78;;;19.79;47.69
62710;BME280;48770;51.624;5.886;2022-09-16T01:04:26;100949.41;;;19.78;47.59
62710;BME280;48770;51.624;5.886;2022-09-16T01:06:53;100946.97;;;19.77;47.64
62710;BME280;48770;51.624;5.886;2022-09-16T01:09:21;100941.41;;;19.77;47.81
62710;BME280;48770;51.624;5.886;2022-09-16T01:11:47;100931.47;;;19.76;47.50
62710;BME280;48770;51.624;5.886;2022-09-16T01:14:13;100931.47;;;19.76;47.72
62710;BME280;48770;51.624;5.886;2022-09-16T01:17:14;100940.47;;;19.73;47.82
62710;BME280;48770;51.624;5.886;2022-09-16T01:19:59;100936.44;;;19.70;47.86
62710;BME280;48770;51.624;5.886;2022-09-16T01:37:04;100942.06;;;19.61;47.80
62710;BME280;48770;51.624;5.886;2022-09-16T01:45:19;100940.91;;;19.62;47.93
62710;BME280;48770;51.624;5.886;2022-09-16T01:47:58;100939.75;;;19.63;47.96
62710;BME280;48770;51.624;5.886;2022-09-16T01:50:32;100942.88;;;19.62;47.81
62710;BME280;48770;51.624;5.886;2022-09-16T01:55:46;100942.88;;;19.62;47.77
62710;BME280;48770;51.624;5.886;2022-09-16T01:58:24;100940.09;;;19.62;48.27
62710;BME280;48770;51.624;5.886;2022-09-16T02:00:53;100933.75;;;19.61;48.10
62710;BME280;48770;51.624;5.886;2022-09-16T02:03:27;100940.09;;;19.62;47.94
62710;BME280;48770;51.624;5.886;2022-09-16T02:05:57;100938.50;;;19.61;47.98
62710;BME280;48770;51.624;5.886;2022-09-16T02:08:39;100934.91;;;19.60;47.85
62710;BME280;48770;51.624;5.886;2022-09-16T02:11:09;100941.25;;;19.61;47.89
62710;BME280;48770;51.624;5.886;2022-09-16T02:13:42;100941.25;;;19.61;48.16
62710;BME280;48770;51.624;5.886;2022-09-16T02:16:13;100943.56;;;19.59;48.06
62710;BME280;48770;51.624;5.886;2022-09-16T02:18:42;100940.78;;;19.59;48.15
62710;BME280;48770;51.624;5.886;2022-09-16T02:21:14;100943.56;;;19.59;48.10
62710;BME280;48770;51.624;5.886;2022-09-16T02:23:44;100936.41;;;19.58;47.76
62710;BME280;48770;51.624;5.886;2022-09-16T02:26:14;100939.19;;;19.58;47.99
62710;BME280;48770;51.624;5.886;2022-09-16T02:28:43;100953.03;;;19.58;48.05
62710;BME280;48770;51.624;5.886;2022-09-16T02:31:12;100951.06;;;19.58;48.11
62710;BME280;48770;51.624;5.886;2022-09-16T02:33:46;100945.88;;;19.57;47.80
62710;BME280;48770;51.624;5.886;2022-09-16T02:36:18;100949.00;;;19.55;48.18
62710;BME280;48770;51.624;5.886;2022-09-16T02:38:48;100944.25;;;19.56;47.81
62710;BME280;48770;51.624;5.886;2022-09-16T02:41:14;100947.03;;;19.56;48.11
62710;BME280;48770;51.624;5.886;2022-09-16T02:43:40;100938.72;;;19.56;48.25
62710;BME280;48770;51.624;5.886;2022-09-16T02:49:29;100924.19;;;19.50;48.21
62710;BME280;48770;51.624;5.886;2022-09-16T02:52:05;100935.28;;;19.50;48.04
62710;BME280;48770;51.624;5.886;2022-09-16T02:54:49;100928.13;;;19.49;48.26
62710;BME280;48770;51.624;5.886;2022-09-16T02:57:15;100929.72;;;19.50;48.38
62710;BME280;48770;51.624;5.886;2022-09-16T02:59:41;100923.38;;;19.50;48.28
62710;BME280;48770;51.624;5.886;2022-09-16T03:02:06;100925.34;;;19.49;48.26
62710;BME280;48770;51.624;5.886;2022-09-16T03:04:33;100926.16;;;19.50;48.14
62710;BME280;48770;51.624;5.886;2022-09-16T03:06:59;100921.41;;;19.50;48.34
62710;BME280;48770;51.624;5.886;2022-09-16T03:09:24;100928.13;;;19.49;48.38
62710;BME280;48770;51.624;5.886;2022-09-16T03:15:18;100927.53;;;19.44;48.42
62710;BME280;48770;51.624;5.886;2022-09-16T03:29:07;100924.28;;;19.41;48.37
62710;BME280;48770;51.624;5.886;2022-09-16T03:31:36;100924.63;;;19.40;48.61
62710;BME280;48770;51.624;5.886;2022-09-16T03:34:07;100917.94;;;19.41;48.53
62710;BME280;48770;51.624;5.886;2022-09-16T03:36:40;100918.72;;;19.41;48.50
62710;BME280;48770;51.624;5.886;2022-09-16T03:39:09;100919.88;;;19.40;48.57
62710;BME280;48770;51.624;5.886;2022-09-16T03:41:36;100916.78;;;19.42;48.33
62710;BME280;48770;51.624;5.886;2022-09-16T03:44:01;100926.25;;;19.41;48.23
62710;BME280;48770;51.624;5.886;2022-09-16T03:46:27;100927.06;;;19.41;48.42
62710;BME280;48770;51.624;5.886;2022-09-16T03:48:54;100926.25;;;19.41;48.23
62710;BME280;48770;51.624;5.886;2022-09-16T03:51:19;100923.47;;;19.41;48.37
62710;BME280;48770;51.624;5.886;2022-09-16T03:53:45;100921.03;;;19.39;48.24
62710;BME280;48770;51.624;5.886;2022-09-16T03:56:10;100924.97;;;19.38;48.32
62710;BME280;48770;51.624;5.886;2022-09-16T03:58:35;100919.41;;;19.38;48.12
62710;BME280;48770;51.624;5.886;2022-09-16T04:01:00;100921.38;;;19.38;48.26
62710;BME280;48770;51.624;5.886;2022-09-16T04:03:26;100917.00;;;19.37;48.22
62710;BME280;48770;51.624;5.886;2022-09-16T04:05:55;100909.47;;;19.37;48.31
62710;BME280;48770;51.624;5.886;2022-09-16T04:08:21;100904.75;;;19.38;48.19
62710;BME280;48770;51.624;5.886;2022-09-16T04:10:58;100903.47;;;19.35;48.33
62710;BME280;48770;51.624;5.886;2022-09-16T04:13:24;100906.25;;;19.35;48.21
62710;BME280;48770;51.624;5.886;2022-09-16T04:15:49;100914.56;;;19.35;48.32
62710;BME280;48770;51.624;5.886;2022-09-16T04:18:16;100917.34;;;19.35;48.30
62710;BME280;48770;51.624;5.886;2022-09-16T04:20:42;100919.28;;;19.35;48.31
62710;BME280;48770;51.624;5.886;2022-09-16T04:23:07;100910.50;;;19.33;48.04
62710;BME280;48770;51.624;5.886;2022-09-16T04:25:33;100915.25;;;19.32;48.35
62710;BME280;48770;51.624;5.886;2022-09-16T04:27:58;100906.91;;;19.32;48.34
62710;BME280;48770;51.624;5.886;2022-09-16T04:30:24;100908.88;;;19.32;48.26
62710;BME280;48770;51.624;5.886;2022-09-16T04:32:54;100898.13;;;19.30;48.37
62710;BME280;48770;51.624;5.886;2022-09-16T04:35:20;100912.81;;;19.31;48.22
62710;BME280;48770;51.624;5.886;2022-09-16T04:37:46;100919.50;;;19.30;48.21
62710;BME280;48770;51.624;5.886;2022-09-16T04:40:11;100913.16;;;19.29;48.28
62710;BME280;48770;51.624;5.886;2022-09-16T04:42:36;100912.34;;;19.29;48.38
62710;BME280;48770;51.624;5.886;2022-09-16T04:45:02;100911.53;;;19.28;48.64
62710;BME280;48770;51.624;5.886;2022-09-16T04:47:30;100910.72;;;19.28;48.07
62710;BME280;48770;51.624;5.886;2022-09-16T04:49:55;100915.47;;;19.27;48.42
62710;BME280;48770;51.624;5.886;2022-09-16T04:52:21;100911.06;;;19.26;48.25
62710;BME280;48770;51.624;5.886;2022-09-16T04:54:46;100906.63;;;19.25;48.38
62710;BME280;48770;51.624;5.886;2022-09-16T04:57:11;100913.03;;;19.26;48.24
62710;BME280;48770;51.624;5.886;2022-09-16T04:59:37;100924.91;;;19.26;48.31
62710;BME280;48770;51.624;5.886;2022-09-16T05:02:02;100927.19;;;19.24;48.18
62710;BME280;48770;51.624;5.886;2022-09-16T05:04:28;100930.78;;;19.25;48.21
62710;BME280;48770;51.624;5.886;2022-09-16T05:06:53;100924.41;;;19.24;48.39
62710;BME280;48770;51.624;5.886;2022-09-16T05:09:18;100924.75;;;19.23;48.26
62710;BME280;48770;51.624;5.886;2022-09-16T05:11:47;100921.19;;;19.22;48.55
62710;BME280;48770;51.624;5.886;2022-09-16T05:14:14;100918.06;;;19.24;48.40
62710;BME280;48770;51.624;5.886;2022-09-16T05:16:40;100914.81;;;19.22;48.46
62710;BME280;48770;51.624;5.886;2022-09-16T05:19:06;100897.38;;;19.21;48.45
62710;BME280;48770;51.624;5.886;2022-09-16T05:21:34;100897.38;;;19.21;48.30
62710;BME280;48770;51.624;5.886;2022-09-16T05:24:00;100906.84;;;19.20;48.44
62710;BME280;48770;51.624;5.886;2022-09-16T05:26:29;100897.72;;;19.20;48.31
62710;BME280;48770;51.624;5.886;2022-09-16T05:28:58;100911.59;;;19.20;48.36
62710;BME280;48770;51.624;5.886;2022-09-16T05:31:25;100906.03;;;19.20;48.56
62710;BME280;48770;51.624;5.886;2022-09-16T05:33:58;100908.34;;;19.18;48.44
62710;BME280;48770;51.624;5.886;2022-09-16T05:36:25;100911.47;;;19.16;48.24
62710;BME280;48770;51.624;5.886;2022-09-16T05:38:51;100911.13;;;19.18;48.43
62710;BME280;48770;51.624;5.886;2022-09-16T05:41:16;100909.50;;;19.17;48.46
62710;BME280;48770;51.624;5.886;2022-09-16T05:43:42;100912.59;;;19.15;48.46
62710;BME280;48770;51.624;5.886;2022-09-16T05:46:18;100903.47;;;19.15;48.45
62710;BME280;48770;51.624;5.886;2022-09-16T05:48:44;100903.81;;;19.13;48.47
62710;BME280;48770;51.624;5.886;2022-09-16T05:51:12;100915.38;;;19.15;48.50
62710;BME280;48770;51.624;5.886;2022-09-16T05:53:38;100917.34;;;19.15;48.48
62710;BME280;48770;51.624;5.886;2022-09-16T05:56:10;100920.47;;;19.13;48.37
62710;BME280;48770;51.624;5.886;2022-09-16T05:58:36;100925.19;;;19.13;48.48
62710;BME280;48770;51.624;5.886;2022-09-16T06:01:06;100924.38;;;19.12;48.82
62710;BME280;48770;51.624;5.886;2022-09-16T06:03:32;100928.78;;;19.13;48.41
62710;BME280;48770;51.624;5.886;2022-09-16T06:08:38;100929.44;;;19.10;48.69
62710;BME280;48770;51.624;5.886;2022-09-16T06:11:06;100935.00;;;19.10;48.57
62710;BME280;48770;51.624;5.886;2022-09-16T06:13:31;100939.72;;;19.09;48.61
62710;BME280;48770;51.624;5.886;2022-09-16T06:15:57;100939.72;;;19.09;48.63
62710;BME280;48770;51.624;5.886;2022-09-16T06:18:24;100946.41;;;19.08;48.67
62710;BME280;48770;51.624;5.886;2022-09-16T06:20:50;100951.97;;;19.08;48.64
62710;BME280;48770;51.624;5.886;2022-09-16T06:23:16;100945.59;;;19.08;48.59
62710;BME280;48770;51.624;5.886;2022-09-16T06:25:41;100949.19;;;19.08;48.69
62710;BME280;48770;51.624;5.886;2022-09-16T06:28:07;100946.75;;;19.07;48.68
62710;BME280;48770;51.624;5.886;2022-09-16T06:30:34;100953.13;;;19.07;48.85
62710;BME280;48770;51.624;5.886;2022-09-16T06:32:59;100943.97;;;19.07;48.57
62710;BME280;48770;51.624;5.886;2022-09-16T06:35:25;100936.00;;;19.05;48.81
62710;BME280;48770;51.624;5.886;2022-09-16T06:37:50;100939.94;;;19.04;48.64
62710;BME280;48770;51.624;5.886;2022-09-16T06:40:16;100935.53;;;19.03;48.71
62710;BME280;48770;51.624;5.886;2022-09-16T06:42:41;100944.66;;;19.04;48.79
62710;BME280;48770;51.624;5.886;2022-09-16T06:45:07;100943.03;;;19.03;48.85
62710;BME280;48770;51.624;5.886;2022-09-16T06:47:32;100946.63;;;19.03;48.91
62710;BME280;48770;51.624;5.886;2022-09-16T06:49:58;100947.78;;;19.02;48.75
62710;BME280;48770;51.624;5.886;2022-09-16T06:52:24;100959.66;;;19.03;49.00
62710;BME280;48770;51.624;5.886;2022-09-16T06:54:49;100952.50;;;19.02;49.04
62710;BME280;48770;51.624;5.886;2022-09-16T06:57:15;100952.50;;;19.02;48.96
62710;BME280;48770;51.624;5.886;2022-09-16T06:59:42;100961.97;;;19.01;48.93
62710;BME280;48770;51.624;5.886;2022-09-16T07:02:09;100963.13;;;19.00;49.17
62710;BME280;48770;51.624;5.886;2022-09-16T07:04:34;100960.34;;;19.00;49.01
62710;BME280;48770;51.624;5.886;2022-09-16T07:07:00;100964.25;;;18.99;48.92
62710;BME280;48770;51.624;5.886;2022-09-16T07:09:25;100968.97;;;18.98;48.78
62710;BME280;48770;51.624;5.886;2022-09-16T07:11:51;100976.97;;;19.00;49.07
62710;BME280;48770;51.624;5.886;2022-09-16T07:14:16;100968.97;;;18.98;49.21
62710;BME280;48770;51.624;5.886;2022-09-16T07:16:41;100977.28;;;18.98;49.12
62710;BME280;48770;51.624;5.886;2022-09-16T07:19:07;100967.34;;;18.97;49.33
62710;BME280;48770;51.624;5.886;2022-09-16T07:21:32;100974.50;;;18.98;49.36
62710;BME280;48770;51.624;5.886;2022-09-16T07:23:59;100972.88;;;18.97;49.26
62710;BME280;48770;51.624;5.886;2022-09-16T07:26:27;100969.78;;;18.99;49.08
62710;BME280;48770;51.624;5.886;2022-09-16T07:28:54;100973.69;;;18.98;49.27
62710;BME280;48770;51.624;5.886;2022-09-16T07:31:25;100967.34;;;18.97;49.24
62710;BME280;48770;51.624;5.886;2022-09-16T07:33:53;100971.75;;;18.98;49.12
62710;BME280;48770;51.624;5.886;2022-09-16T07:36:22;100961.81;;;18.97;49.32
62710;BME280;48770;51.624;5.886;2022-09-16T07:38:48;100965.72;;;18.96;49.14
62710;BME280;48770;51.624;5.886;2022-09-16T07:41:19;100970.44;;;18.96;49.31
62710;BME280;48770;51.624;5.886;2022-09-16T07:43:45;100964.91;;;18.96;49.50
62710;BME280;48770;51.624;5.886;2022-09-16T07:46:12;100973.22;;;18.96;49.44
62710;BME280;48770;51.624;5.886;2022-09-16T07:48:38;100966.88;;;18.95;49.26
62710;BME280;48770;51.624;5.886;2022-09-16T07:51:06;100964.09;;;18.95;49.51
62710;BME280;48770;51.624;5.886;2022-09-16T07:53:33;100967.69;;;18.96;49.53
62710;BME280;48770;51.624;5.886;2022-09-16T07:56:04;100970.44;;;18.96;49.54
62710;BME280;48770;51.624;5.886;2022-09-16T07:58:29;100975.19;;;18.95;49.49
62710;BME280;48770;51.624;5.886;2022-09-16T08:00:55;100968.03;;;18.94;49.73
62710;BME280;48770;51.624;5.886;2022-09-16T08:03:21;100968.03;;;18.94;49.54
62710;BME280;48770;51.624;5.886;2022-09-16T08:05:46;100973.56;;;18.94;49.74
62710;BME280;48770;51.624;5.886;2022-09-16T08:08:11;100974.38;;;18.95;49.73
62710;BME280;48770;51.624;5.886;2022-09-16T08:10:37;100972.75;;;18.94;49.68
62710;BME280;48770;51.624;5.886;2022-09-16T08:13:03;100979.91;;;18.95;49.75
62710;BME280;48770;51.624;5.886;2022-09-16T08:15:28;100983.16;;;18.97;49.88
62710;BME280;48770;51.624;5.886;2022-09-16T08:17:54;100984.31;;;18.96;49.73
62710;BME280;48770;51.624;5.886;2022-09-16T08:20:19;100981.53;;;18.96;49.85
62710;BME280;48770;51.624;5.886;2022-09-16T08:22:45;100982.34;;;18.96;50.01
62710;BME280;48770;51.624;5.886;2022-09-16T08:25:10;100988.69;;;18.97;49.81
62710;BME280;48770;51.624;5.886;2022-09-16T08:27:36;100995.88;;;18.98;50.04
62710;BME280;48770;51.624;5.886;2022-09-16T08:30:02;100998.63;;;18.98;50.12
62710;BME280;48770;51.624;5.886;2022-09-16T08:32:28;100997.50;;;18.99;50.12
62710;BME280;48770;51.624;5.886;2022-09-16T08:34:53;100989.19;;;18.99;50.19
62710;BME280;48770;51.624;5.886;2022-09-16T08:37:18;100997.50;;;18.99;50.18
62710;BME280;48770;51.624;5.886;2022-09-16T08:39:46;100993.59;;;19.00;50.32
62710;BME280;48770;51.624;5.886;2022-09-16T08:50:18;100999.94;;;19.00;50.39
62710;BME280;48770;51.624;5.886;2022-09-16T08:52:46;100997.66;;;19.02;50.31
62710;BME280;48770;51.624;5.886;2022-09-16T08:55:24;100992.91;;;19.03;50.46
62710;BME280;48770;51.624;5.886;2022-09-16T08:57:56;100993.59;;;19.00;50.52
62710;BME280;48770;51.624;5.886;2022-09-16T09:00:22;100988.19;;;19.03;50.59
62710;BME280;48770;51.624;5.886;2022-09-16T09:05:46;100989.00;;;19.04;50.70
62710;BME280;48770;51.624;5.886;2022-09-16T09:10:49;101000.56;;;19.06;50.47
62710;BME280;48770;51.624;5.886;2022-09-16T09:21:49;101000.53;;;18.85;50.89
62710;BME280;48770;51.624;5.886;2022-09-16T09:27:21;100990.84;;;19.00;51.26
62710;BME280;48770;51.624;5.886;2022-09-16T09:30:16;100990.00;;;18.99;51.19
62710;BME280;48770;51.624;5.886;2022-09-16T09:35:42;100994.88;;;19.02;51.26
62710;BME280;48770;51.624;5.886;2022-09-16T09:38:28;100996.16;;;19.05;51.24
62710;BME280;48770;51.624;5.886;2022-09-16T09:41:02;100992.25;;;19.06;51.25
62710;BME280;48770;51.624;5.886;2022-09-16T09:43:34;100972.84;;;19.06;51.19
62710;BME280;48770;51.624;5.886;2022-09-16T09:46:07;100966.97;;;19.07;51.24
62710;BME280;48770;51.624;5.886;2022-09-16T09:48:41;100973.78;;;19.10;51.25
62710;BME280;48770;51.624;5.886;2022-09-16T09:53:56;100983.59;;;19.07;51.49
62710;BME280;48770;51.624;5.886;2022-09-16T09:56:30;100985.81;;;19.14;51.52
62710;BME280;48770;51.624;5.886;2022-09-16T09:59:03;100988.03;;;19.21;51.50
62710;BME280;48770;51.624;5.886;2022-09-16T10:01:32;100986.22;;;19.25;51.70
62710;BME280;48770;51.624;5.886;2022-09-16T10:03:58;100993.88;;;19.28;51.49
62710;BME280;48770;51.624;5.886;2022-09-16T10:06:27;101005.44;;;19.30;51.21
62710;BME280;48770;51.624;5.886;2022-09-16T10:08:55;101000.50;;;19.35;51.19
62710;BME280;48770;51.624;5.886;2022-09-16T10:11:27;101007.00;;;19.39;51.60
62710;BME280;48770;51.624;5.886;2022-09-16T10:13:57;101011.03;;;19.42;51.72
62710;BME280;48770;51.624;5.886;2022-09-16T10:16:35;101000.09;;;19.46;51.92
62710;BME280;48770;51.624;5.886;2022-09-16T10:19:18;101004.47;;;19.47;51.84
62710;BME280;48770;51.624;5.886;2022-09-16T10:21:54;101013.75;;;19.51;51.93
62710;BME280;48770;51.624;5.886;2022-09-16T10:24:40;101010.66;;;19.52;52.07
62710;BME280;48770;51.624;5.886;2022-09-16T10:27:36;101010.66;;;19.52;51.93
62710;BME280;48770;51.624;5.886;2022-09-16T10:30:18;101008.84;;;19.56;51.84
62710;BME280;48770;51.624;5.886;2022-09-16T10:32:59;101014.06;;;19.58;51.73
62710;BME280;48770;51.624;5.886;2022-09-16T10:35:30;101013.38;;;19.61;51.64
62710;BME280;48770;51.624;5.886;2022-09-16T10:38:00;101010.72;;;19.64;51.68
62710;BME280;48770;51.624;5.886;2022-09-16T10:40:26;101012.00;;;19.67;51.67
62710;BME280;48770;51.624;5.886;2022-09-16T10:42:53;101004.97;;;19.69;51.67
62710;BME280;48770;51.624;5.886;2022-09-16T10:45:24;101009.03;;;19.72;51.63
62710;BME280;48770;51.624;5.886;2022-09-16T10:47:54;101015.03;;;19.74;51.82
62710;BME280;48770;51.624;5.886;2022-09-16T10:50:21;101007.19;;;19.76;51.33
62710;BME280;48770;51.624;5.886;2022-09-16T10:52:47;101013.22;;;19.78;51.34
62710;BME280;48770;51.624;5.886;2022-09-16T10:55:26;101004.56;;;19.80;51.53
62710;BME280;48770;51.624;5.886;2022-09-16T10:57:53;101011.41;;;19.82;51.43
62710;BME280;48770;51.624;5.886;2022-09-16T11:00:32;101000.28;;;19.82;51.49
62710;BME280;48770;51.624;5.886;2022-09-16T11:06:58;101007.47;;;19.83;51.56
62710;BME280;48770;51.624;5.886;2022-09-16T11:09:07;100996.03;;;19.85;51.57
62710;BME280;48770;51.624;5.886;2022-09-16T11:11:45;101000.88;;;19.88;51.22
62710;BME280;48770;51.624;5.886;2022-09-16T11:19:42;101002.16;;;19.90;51.08
62710;BME280;48770;51.624;5.886;2022-09-16T11:22:36;100999.38;;;19.90;51.22
62710;BME280;48770;51.624;5.886;2022-09-16T11:30:44;100998.00;;;19.96;51.49
62710;BME280;48770;51.624;5.886;2022-09-16T11:33:20;101001.72;;;20.00;51.16
62710;BME280;48770;51.624;5.886;2022-09-16T11:41:32;101005.25;;;20.22;51.26
62710;BME280;48770;51.624;5.886;2022-09-16T11:47:16;101000.31;;;20.40;50.77
62710;BME280;48770;51.624;5.886;2022-09-16T11:50:17;100996.63;;;20.48;50.46
62710;BME280;48770;51.624;5.886;2022-09-16T11:58:26;101007.06;;;20.75;50.42
62710;BME280;48770;51.624;5.886;2022-09-16T12:01:01;101022.03;;;20.83;49.89
62710;BME280;48770;51.624;5.886;2022-09-16T12:03:46;101027.34;;;20.88;49.79
62710;BME280;48770;51.624;5.886;2022-09-16T12:06:21;101035.91;;;20.95;49.76
62710;BME280;48770;51.624;5.886;2022-09-16T12:09:10;101034.50;;;21.01;49.62
62710;BME280;48770;51.624;5.886;2022-09-16T12:11:42;101028.34;;;21.08;49.41
62710;BME280;48770;51.624;5.886;2022-09-16T12:14:14;101019.78;;;21.13;49.11
62710;BME280;48770;51.624;5.886;2022-09-16T12:16:52;101022.31;;;21.18;49.06
62710;BME280;48770;51.624;5.886;2022-09-16T12:19:28;101032.38;;;21.22;48.62
62710;BME280;48770;51.624;5.886;2022-09-16T12:22:02;101013.53;;;21.28;48.84
62710;BME280;48770;51.624;5.886;2022-09-16T12:24:40;101017.22;;;21.32;48.46
62710;BME280;48770;51.624;5.886;2022-09-16T12:30:00;101013.50;;;21.40;48.73
62710;BME280;48770;51.624;5.886;2022-09-16T12:32:41;101015.56;;;21.43;48.48
62710;BME280;48770;51.624;5.886;2022-09-16T12:35:12;101023.22;;;21.46;48.13
62710;BME280;48770;51.624;5.886;2022-09-16T12:37:45;101024.47;;;21.49;48.34
62710;BME280;48770;51.624;5.886;2022-09-16T12:43:12;101030.50;;;21.51;47.89
62710;BME280;48770;51.624;5.886;2022-09-16T12:46:00;101024.22;;;21.54;47.74
62710;BME280;48770;51.624;5.886;2022-09-16T12:54:31;101017.72;;;21.62;47.69
62710;BME280;48770;51.624;5.886;2022-09-16T12:57:12;101019.09;;;21.68;47.35
62710;BME280;48770;51.624;5.886;2022-09-16T13:02:35;100996.66;;;21.77;47.33
62710;BME280;48770;51.624;5.886;2022-09-16T13:05:26;100996.75;;;21.80;47.19
62710;BME280;48770;51.624;5.886;2022-09-16T13:07:55;100996.50;;;21.85;47.19
62710;BME280;48770;51.624;5.886;2022-09-16T13:10:31;100993.84;;;21.89;46.92
62710;BME280;48770;51.624;5.886;2022-09-16T13:13:00;101003.09;;;21.93;46.78
62710;BME280;48770;51.624;5.886;2022-09-16T13:15:34;100995.56;;;21.94;47.10
62710;BME280;48770;51.624;5.886;2022-09-16T13:21:00;101000.03;;;21.98;46.62
62710;BME280;48770;51.624;5.886;2022-09-16T13:23:32;101000.84;;;21.99;46.86
62710;BME280;48770;51.624;5.886;2022-09-16T13:26:02;101005.72;;;22.02;46.52
62710;BME280;48770;51.624;5.886;2022-09-16T13:33:43;100998.97;;;22.03;46.63
62710;BME280;48770;51.624;5.886;2022-09-16T13:38:46;100998.66;;;22.04;46.64
62710;BME280;48770;51.624;5.886;2022-09-16T13:41:14;101007.00;;;22.04;46.29
62710;BME280;48770;51.624;5.886;2022-09-16T13:43:52;100995.03;;;22.04;46.75
62710;BME280;48770;51.624;5.886;2022-09-16T13:51:31;101003.84;;;22.06;47.23
62710;BME280;48770;51.624;5.886;2022-09-16T13:53:58;101010.69;;;22.08;46.83
62710;BME280;48770;51.624;5.886;2022-09-16T13:57:45;101001.88;;;22.06;46.97
62710;BME280;48770;51.624;5.886;2022-09-16T14:03:16;101015.88;;;22.10;46.61
62710;BME280;48770;51.624;5.886;2022-09-16T14:14:22;100995.97;;;22.24;46.74
62710;BME280;48770;51.624;5.886;2022-09-16T14:16:49;101004.44;;;22.27;46.54
62710;BME280;48770;51.624;5.886;2022-09-16T14:19:23;101018.09;;;22.32;46.29
62710;BME280;48770;51.624;5.886;2022-09-16T14:22:11;101036.88;;;22.35;46.01
62710;BME280;48770;51.624;5.886;2022-09-16T14:24:39;101024.66;;;22.40;46.26
62710;BME280;48770;51.624;5.886;2022-09-16T14:27:16;101009.22;;;22.42;46.40
62710;BME280;48770;51.624;5.886;2022-09-16T14:29:53;100998.50;;;22.44;46.03
62710;BME280;48770;51.624;5.886;2022-09-16T14:32:20;101002.56;;;22.47;45.72
62710;BME280;48770;51.624;5.886;2022-09-16T14:34:48;100997.06;;;22.51;45.54
62710;BME280;48770;51.624;5.886;2022-09-16T14:37:17;100992.75;;;22.53;45.63
62710;BME280;48770;51.624;5.886;2022-09-16T14:39:44;100992.38;;;22.55;45.69
62710;BME280;48770;51.624;5.886;2022-09-16T14:42:16;100995.63;;;22.57;45.71
62710;BME280;48770;51.624;5.886;2022-09-16T14:44:48;100993.63;;;22.57;46.06
62710;BME280;48770;51.624;5.886;2022-09-16T14:47:20;100999.28;;;22.61;45.92
62710;BME280;48770;51.624;5.886;2022-09-16T14:49:53;101001.34;;;22.64;45.78
62710;BME280;48770;51.624;5.886;2022-09-16T14:52:23;100995.91;;;22.67;45.82
62710;BME280;48770;51.624;5.886;2022-09-16T14:54:49;101005.06;;;22.68;45.92
62710;BME280;48770;51.624;5.886;2022-09-16T14:57:21;100999.13;;;22.69;45.62
62710;BME280;48770;51.624;5.886;2022-09-16T14:59:48;100992.38;;;22.70;45.54
62710;BME280;48770;51.624;5.886;2022-09-16T15:04:47;100990.50;;;22.74;45.58
62710;BME280;48770;51.624;5.886;2022-09-16T15:07:23;100998.47;;;22.76;45.38
62710;BME280;48770;51.624;5.886;2022-09-16T15:10:27;100986.88;;;22.74;45.21
62710;BME280;48770;51.624;5.886;2022-09-16T15:12:56;100986.09;;;22.73;45.34
62710;BME280;48770;51.624;5.886;2022-09-16T15:15:25;100986.88;;;22.74;45.14
62710;BME280;48770;51.624;5.886;2022-09-16T15:18:03;100986.09;;;22.73;45.44
62710;BME280;48770;51.624;5.886;2022-09-16T15:20:37;100990.84;;;22.73;45.45
62710;BME280;48770;51.624;5.886;2022-09-16T15:23:04;100984.09;;;22.74;45.16
62710;BME280;48770;51.624;5.886;2022-09-16T15:25:32;100982.94;;;22.75;45.00
62710;BME280;48770;51.624;5.886;2022-09-16T15:28:15;100994.38;;;22.70;44.71
62710;BME280;48770;51.624;5.886;2022-09-16T15:30:50;100999.03;;;22.66;45.16
62710;BME280;48770;51.624;5.886;2022-09-16T15:33:31;101002.91;;;22.61;44.96
62710;BME280;48770;51.624;5.886;2022-09-16T15:35:57;101007.56;;;22.57;45.13